createdAt,value
2022-08-17T00:01:24.051Z,22.55
2022-08-17T00:06:31.582Z,22.48
2022-08-17T00:11:40.927Z,22.41
2022-08-17T00:16:56.765Z,22.29
2022-08-17T00:22:34.028Z,22.18
2022-08-17T00:27:26.248Z,22.10
2022-08-17T00:33:11.650Z,22.07
2022-08-17T00:37:52.672Z,22.05
2022-08-17T00:42:55.614Z,22.06
2022-08-17T00:47:58.433Z,22.05
2022-08-17T00:53:02.325Z,22.05
2022-08-17T00:58:06.298Z,21.99
2022-08-17T01:03:13.378Z,21.93
2022-08-17T01:08:19.831Z,21.84
2022-08-17T01:13:25.533Z,21.74
2022-08-17T01:18:28.539Z,21.63
2022-08-17T01:23:31.266Z,21.56
2022-08-17T01:28:54.621Z,21.52
2022-08-17T01:34:01.902Z,21.54
2022-08-17T01:39:15.370Z,21.52
2022-08-17T01:44:18.323Z,21.49
2022-08-17T01:49:21.117Z,21.44
2022-08-17T01:54:25.660Z,21.41
2022-08-17T01:59:28.646Z,21.41
2022-08-17T02:04:32.162Z,21.41
2022-08-17T02:09:34.882Z,21.41
2022-08-17T02:14:43.993Z,21.39
2022-08-17T02:19:46.696Z,21.35
2022-08-17T02:24:59.705Z,21.31
2022-08-17T02:30:58.966Z,21.32
2022-08-17T02:35:29.654Z,21.35
2022-08-17T02:40:36.253Z,21.36
2022-08-17T02:45:39.881Z,21.31
2022-08-17T02:50:42.833Z,21.30
2022-08-17T02:55:45.572Z,21.31
2022-08-17T03:00:48.758Z,21.29
2022-08-17T03:05:53.163Z,21.25
2022-08-17T03:10:56.389Z,21.18
2022-08-17T03:15:59.145Z,21.17
2022-08-17T03:21:04.494Z,21.15
2022-08-17T03:26:12.345Z,21.12
2022-08-17T03:31:18.521Z,21.10
2022-08-17T03:36:21.377Z,21.03
2022-08-17T03:41:24.161Z,20.97
2022-08-17T03:46:45.750Z,20.97
2022-08-17T03:52:07.710Z,20.97
2022-08-17T03:57:12.620Z,20.98
2022-08-17T04:02:25.854Z,21.02
2022-08-17T04:07:31.091Z,21.13
2022-08-17T04:12:53.189Z,21.23
2022-08-17T04:17:56.091Z,21.24
2022-08-17T04:23:11.419Z,21.24
2022-08-17T04:28:15.819Z,21.27
2022-08-17T04:33:24.090Z,21.36
2022-08-17T04:38:31.989Z,21.51
2022-08-17T04:43:36.635Z,21.72
2022-08-17T04:48:42.768Z,21.94
2022-08-17T04:53:54.165Z,22.19
2022-08-17T04:59:01.258Z,22.43
2022-08-17T05:04:33.475Z,22.71
2022-08-17T05:09:31.204Z,23.00
2022-08-17T05:14:34.067Z,23.20
2022-08-17T05:19:37.426Z,23.38
2022-08-17T05:24:50.433Z,23.61
2022-08-17T05:29:56.934Z,24.30
2022-08-17T05:35:00.603Z,24.97
2022-08-17T05:40:04.562Z,25.63
2022-08-17T05:45:08.725Z,26.25
2022-08-17T05:50:25.746Z,26.66
2022-08-17T05:55:43.314Z,27.18
2022-08-17T06:01:12.796Z,27.80
2022-08-17T06:06:25.124Z,28.72
2022-08-17T06:11:53.965Z,29.57
2022-08-17T06:17:12.621Z,30.30
2022-08-17T06:22:18.572Z,31.15
2022-08-17T06:27:41.727Z,31.81
2022-08-17T06:32:48.847Z,32.46
2022-08-17T06:38:09.910Z,32.99
2022-08-17T06:43:39.722Z,33.38
2022-08-17T06:49:11.733Z,33.95
2022-08-17T06:54:34.157Z,34.56
2022-08-17T06:59:59.711Z,35.07
2022-08-17T07:05:03.054Z,35.69
2022-08-17T07:10:09.639Z,36.61
2022-08-17T07:15:34.167Z,37.80
2022-08-17T07:20:38.124Z,38.71
2022-08-17T07:25:40.877Z,39.24
2022-08-17T07:30:51.502Z,40.14
2022-08-17T07:35:57.498Z,41.01
2022-08-17T07:41:05.296Z,41.51
2022-08-17T07:46:30.035Z,42.12
2022-08-17T07:51:43.421Z,42.98
2022-08-17T07:56:50.006Z,43.61
2022-08-17T08:01:59.182Z,44.22
2022-08-17T08:07:07.845Z,44.80
2022-08-17T08:12:40.252Z,45.41
2022-08-17T08:18:04.746Z,45.89
2022-08-17T08:23:37.210Z,46.38
2022-08-17T08:29:28.302Z,47.02
2022-08-17T08:35:04.284Z,47.73
2022-08-17T08:40:13.263Z,48.55
2022-08-17T08:45:28.905Z,49.04
2022-08-17T08:50:42.977Z,49.66
2022-08-17T08:55:49.352Z,49.75
2022-08-17T09:00:56.433Z,50.37
2022-08-17T09:06:32.005Z,50.71
2022-08-17T09:12:01.433Z,50.80
2022-08-17T09:17:21.899Z,50.72
2022-08-17T09:22:43.111Z,47.66
2022-08-17T09:28:05.582Z,43.97
2022-08-17T09:33:11.654Z,44.97
2022-08-17T09:38:39.644Z,46.91
2022-08-17T09:43:58.730Z,48.79
2022-08-17T09:49:39.774Z,50.28
2022-08-17T09:54:44.368Z,51.47
2022-08-17T09:59:53.251Z,52.42
2022-08-17T10:05:09.837Z,52.10
2022-08-17T10:10:29.846Z,51.14
2022-08-17T10:15:47.638Z,51.28
2022-08-17T10:21:25.134Z,50.93
2022-08-17T10:26:40.544Z,51.54
2022-08-17T10:32:04.285Z,51.16
2022-08-17T10:37:26.338Z,48.08
2022-08-17T10:42:51.589Z,44.22
2022-08-17T10:48:06.136Z,43.84
2022-08-17T10:53:09.839Z,46.22
2022-08-17T10:58:21.101Z,47.54
2022-08-17T11:03:25.766Z,48.85
2022-08-17T11:08:57.689Z,49.79
2022-08-17T11:14:13.903Z,51.17
2022-08-17T11:19:41.419Z,51.88
2022-08-17T11:24:48.244Z,51.84
2022-08-17T11:30:02.080Z,51.49
2022-08-17T11:35:43.357Z,51.48
2022-08-17T11:41:27.578Z,48.11
2022-08-17T11:46:57.929Z,44.81
2022-08-17T11:52:01.174Z,45.25
2022-08-17T11:57:26.018Z,46.76
2022-08-17T12:02:33.021Z,46.38
2022-08-17T12:07:43.236Z,45.38
2022-08-17T12:12:51.324Z,45.01
2022-08-17T12:17:56.731Z,46.74
2022-08-17T12:23:23.519Z,47.95
2022-08-17T12:28:33.084Z,48.88
2022-08-17T12:33:42.487Z,48.26
2022-08-17T12:39:14.481Z,45.53
2022-08-17T12:44:33.629Z,42.98
2022-08-17T12:49:39.572Z,41.16
2022-08-17T12:54:52.637Z,39.86
2022-08-17T12:59:59.473Z,38.79
2022-08-17T13:05:02.213Z,38.12
2022-08-17T13:10:05.681Z,37.57
2022-08-17T13:15:17.161Z,37.03
2022-08-17T13:20:19.958Z,36.67
2022-08-17T13:25:23.411Z,36.41
2022-08-17T13:30:32.905Z,36.93
2022-08-17T13:35:50.271Z,37.69
2022-08-17T13:40:53.707Z,37.59
2022-08-17T13:46:08.910Z,39.02
2022-08-17T13:51:22.585Z,38.61
2022-08-17T13:56:53.561Z,37.82
2022-08-17T14:01:56.504Z,37.55
2022-08-17T14:07:16.082Z,38.49
2022-08-17T14:12:25.074Z,39.63
2022-08-17T14:17:29.589Z,40.15
2022-08-17T14:22:36.337Z,39.43
2022-08-17T14:27:52.373Z,38.68
2022-08-17T14:32:58.187Z,37.82
2022-08-17T14:38:04.274Z,37.12
2022-08-17T14:43:07.108Z,36.46
2022-08-17T14:48:11.107Z,35.81
2022-08-17T14:53:16.370Z,35.23
2022-08-17T14:58:19.994Z,34.77
2022-08-17T15:03:23.641Z,34.45
2022-08-17T15:08:26.441Z,34.09
2022-08-17T15:13:29.760Z,33.79
2022-08-17T15:18:33.065Z,33.61
2022-08-17T15:23:36.975Z,33.52
2022-08-17T15:28:40.135Z,33.48
2022-08-17T15:33:43.096Z,33.41
2022-08-17T15:38:47.007Z,33.32
2022-08-17T15:43:52.859Z,33.38
2022-08-17T15:49:00.263Z,33.20
2022-08-17T15:54:19.120Z,32.96
2022-08-17T15:59:25.799Z,32.80
2022-08-17T16:04:30.704Z,32.79
2022-08-17T16:09:33.980Z,32.72
2022-08-17T16:14:37.073Z,32.67
2022-08-17T16:19:40.658Z,32.52
2022-08-17T16:24:56.828Z,32.20
2022-08-17T16:30:01.472Z,31.80
2022-08-17T16:35:07.209Z,31.48
2022-08-17T16:40:11.651Z,31.19
2022-08-17T16:45:18.575Z,30.81
2022-08-17T16:50:24.030Z,30.46
2022-08-17T16:55:26.909Z,30.15
2022-08-17T17:00:30.119Z,29.82
2022-08-17T17:05:35.941Z,29.54
2022-08-17T17:10:49.082Z,29.25
2022-08-17T17:16:21.684Z,29.01
2022-08-17T17:21:32.933Z,28.80
2022-08-17T17:26:57.575Z,28.60
2022-08-17T17:32:21.028Z,28.36
2022-08-17T17:37:32.876Z,28.12
2022-08-17T17:42:41.932Z,27.91
2022-08-17T17:47:45.742Z,27.71
2022-08-17T17:53:13.004Z,27.53
2022-08-17T17:58:32.600Z,27.34
2022-08-17T18:03:38.607Z,27.19
2022-08-17T18:09:19.603Z,27.02
2022-08-17T18:14:54.968Z,26.84
2022-08-17T18:19:57.883Z,26.68
2022-08-17T18:25:00.937Z,26.54
2022-08-17T18:30:12.904Z,26.42
2022-08-17T18:35:18.329Z,26.31
2022-08-17T18:40:21.812Z,26.20
2022-08-17T18:45:38.292Z,26.10
2022-08-17T18:50:41.578Z,26.00
2022-08-17T18:55:45.382Z,25.89
2022-08-17T19:00:50.435Z,25.78
2022-08-17T19:05:56.473Z,25.70
2022-08-17T19:11:08.899Z,25.61
2022-08-17T19:16:22.613Z,25.51
2022-08-17T19:21:56.406Z,25.41
2022-08-17T19:27:11.605Z,25.31
2022-08-17T19:32:20.588Z,25.22
2022-08-17T19:37:29.589Z,25.13
2022-08-17T19:42:47.825Z,25.03
2022-08-17T19:48:03.286Z,24.95
2022-08-17T19:53:18.653Z,24.90
2022-08-17T19:58:37.880Z,24.86
2022-08-17T20:04:05.799Z,24.81
2022-08-17T20:09:34.378Z,24.78
2022-08-17T20:15:03.234Z,24.77
2022-08-17T20:20:19.543Z,24.76
2022-08-17T20:25:59.307Z,24.75
2022-08-17T20:31:25.432Z,24.67
2022-08-17T20:36:36.847Z,24.51
2022-08-17T20:42:04.765Z,24.37
2022-08-17T20:47:17.245Z,24.22
2022-08-17T20:52:57.701Z,24.10
2022-08-17T20:58:15.471Z,23.96
2022-08-17T21:03:22.721Z,23.84
2022-08-17T21:08:53.465Z,23.73
2022-08-17T21:14:15.379Z,23.60
2022-08-17T21:19:23.760Z,23.49
2022-08-17T21:24:47.708Z,23.39
2022-08-17T21:30:11.838Z,23.27
2022-08-17T21:35:28.555Z,23.18
2022-08-17T21:40:33.463Z,23.10
2022-08-17T21:45:40.426Z,23.02
2022-08-17T21:50:46.381Z,22.93
2022-08-17T21:55:50.375Z,22.83
2022-08-17T22:01:11.944Z,22.72
2022-08-17T22:06:20.376Z,22.58
2022-08-17T22:11:23.098Z,22.47
2022-08-17T22:16:28.792Z,22.35
2022-08-17T22:21:32.390Z,22.26
2022-08-17T22:27:08.354Z,22.18
2022-08-17T22:32:11.528Z,22.10
2022-08-17T22:37:29.129Z,22.02
2022-08-17T22:42:47.260Z,21.95
2022-08-17T22:47:55.787Z,21.87
2022-08-17T22:53:22.951Z,21.79
2022-08-17T22:58:58.661Z,21.74
2022-08-17T23:04:06.059Z,21.71
2022-08-17T23:09:09.353Z,21.68
2022-08-17T23:14:13.869Z,21.66
2022-08-17T23:19:20.497Z,21.61
2022-08-17T23:24:27.402Z,21.57
2022-08-17T23:29:30.136Z,21.51
2022-08-17T23:34:33.312Z,21.45
2022-08-17T23:39:37.547Z,21.39
2022-08-17T23:44:43.674Z,21.32
2022-08-17T23:49:46.509Z,21.24
2022-08-17T23:54:49.439Z,21.18
2022-08-17T23:59:52.449Z,21.17
